DEKCM EDLW-EDLW

Flight info

Callsign DEKCM
Flight time 0h 9m
Altitude
Route
Aircraft DA62

Departure

Time 2026-05-07 17:59
Airport Dortmund Airport (EDLW)

Arrival

Time 2026-05-07 18:08
Airport Dortmund Airport (EDLW)
Time Latitude Longitude Altitude Speed Heading
2026-05-07 17:48 51.51254 7.60556 457 ft 0 kts 104°
2026-05-07 17:50 51.51273 7.60563 454 ft 10 kts 302°
2026-05-07 17:50 51.51250 7.60452 451 ft 11 kts 240°
2026-05-07 17:51 51.51204 7.60324 452 ft 14 kts 238°
2026-05-07 17:51 51.51156 7.60215 456 ft 11 kts 255°
2026-05-07 17:51 51.51206 7.60168 447 ft 14 kts 45°
2026-05-07 17:51 51.51253 7.60322 438 ft 16 kts 62°
2026-05-07 17:52 51.51310 7.60486 437 ft 18 kts 60°
2026-05-07 17:52 51.51367 7.60650 435 ft 16 kts 61°
2026-05-07 17:52 51.51422 7.60804 429 ft 17 kts 61°
2026-05-07 17:52 51.51477 7.60957 430 ft 15 kts 60°
2026-05-07 17:53 51.51539 7.61065 427 ft 14 kts
2026-05-07 17:53 51.51569 7.60953 416 ft 12 kts 257°
2026-05-07 17:53 51.51546 7.60828 420 ft 12 kts 253°
2026-05-07 17:53 51.51527 7.60699 416 ft 2 kts 268°
2026-05-07 17:54 51.51527 7.60695 416 ft 0 kts 270°
2026-05-07 17:55 51.51540 7.60637 415 ft 13 kts 311°
2026-05-07 17:55 51.51614 7.60626 416 ft 11 kts 35°
2026-05-07 17:55 51.51737 7.60954 415 ft 59 kts 61°
2026-05-07 17:55 51.52007 7.61715 413 ft 92 kts 60°
2026-05-07 17:56 51.52325 7.62552 663 ft 83 kts 54°
2026-05-07 17:56 51.52843 7.62870 788 ft 90 kts 340°
2026-05-07 17:56 51.53095 7.62068 924 ft 94 kts 248°
2026-05-07 17:56 51.52822 7.60997 909 ft 108 kts 242°
2026-05-07 17:57 51.52453 7.60000 788 ft 99 kts 236°
2026-05-07 17:57 51.52196 7.59412 660 ft 96 kts 231°
2026-05-07 17:57 51.51452 7.59157 615 ft 87 kts 143°
2026-05-07 17:57 51.51374 7.60027 536 ft 93 kts 52°
2026-05-07 17:58 51.51691 7.60789 417 ft 74 kts 61°
2026-05-07 17:58 51.51982 7.61597 528 ft 86 kts 56°
2026-05-07 17:58 51.52334 7.62355 736 ft 88 kts 50°
2026-05-07 17:58 51.52888 7.62658 916 ft 93 kts 340°
2026-05-07 17:59 51.53254 7.61821 1067 ft 99 kts 266°
2026-05-07 17:59 51.52958 7.60845 986 ft 100 kts 235°
2026-05-07 17:59 51.52553 7.59981 880 ft 94 kts 231°
2026-05-07 17:59 51.52133 7.59197 850 ft 98 kts 228°
2026-05-07 18:00 51.51667 7.58367 801 ft 98 kts 227°
2026-05-07 18:00 51.51186 7.57599 774 ft 97 kts 222°
2026-05-07 18:00 51.50677 7.56895 849 ft 94 kts 205°
2026-05-07 18:00 51.50194 7.57280 959 ft 100 kts 80°
2026-05-07 18:01 51.50642 7.58079 701 ft 98 kts 44°
2026-05-07 18:01 51.51195 7.58480 631 ft 96 kts 328°
2026-05-07 18:01 51.51120 7.57657 728 ft 98 kts 182°
2026-05-07 18:01 51.50903 7.58471 672 ft 98 kts 66°
2026-05-07 18:02 51.51759 7.60995 438 ft 151 kts 60°
2026-05-07 18:02 51.52286 7.62449 733 ft 120 kts 49°
2026-05-07 18:02 51.52875 7.62751 1292 ft 95 kts 339°
2026-05-07 18:03 51.53180 7.61888 1067 ft 96 kts 254°
2026-05-07 18:03 51.52868 7.60941 882 ft 98 kts 236°
2026-05-07 18:03 51.52406 7.59988 852 ft 107 kts 230°
2026-05-07 18:03 51.51918 7.59209 597 ft 95 kts 208°
2026-05-07 18:04 51.51337 7.59342 514 ft 90 kts 136°
2026-05-07 18:04 51.51463 7.60199 463 ft 90 kts 53°
2026-05-07 18:04 51.51753 7.60979 416 ft 85 kts 59°
2026-05-07 18:04 51.52068 7.61808 641 ft 84 kts 60°
2026-05-07 18:05 51.52375 7.62665 833 ft 87 kts 54°
2026-05-07 18:05 51.52862 7.63138 983 ft 96 kts
2026-05-07 18:05 51.53457 7.62696 1135 ft 104 kts 300°
2026-05-07 18:05 51.53453 7.61595 1346 ft 104 kts 248°
2026-05-07 18:06 51.53114 7.60671 1134 ft 94 kts 234°
2026-05-07 18:06 51.52714 7.59840 951 ft 96 kts 229°
2026-05-07 18:06 51.52256 7.59068 886 ft 93 kts 224°
2026-05-07 18:06 51.51803 7.58352 814 ft 92 kts 225°
2026-05-07 18:07 51.51295 7.57733 851 ft 90 kts 186°
2026-05-07 18:07 51.50959 7.58449 759 ft 102 kts 83°
2026-05-07 18:07 51.51230 7.59482 568 ft 97 kts 60°
2026-05-07 18:07 51.51529 7.60346 428 ft 83 kts 60°
2026-05-07 18:08 51.51784 7.61065 415 ft 57 kts 61°
2026-05-07 18:08 51.51835 7.61218 410 ft 0 kts 62°